sensor_id;sensor_type;location;lat;lon;timestamp;pressure;altitude;pressure_sealevel;temperature;humidity
41312;BME280;27061;41.648;24.568;2022-11-14T00:01:06;86856.31;;;5.78;60.64
41312;BME280;27061;41.648;24.568;2022-11-14T00:03:51;86825.84;;;5.66;61.60
41312;BME280;27061;41.648;24.568;2022-11-14T00:06:37;86828.56;;;5.64;61.57
41312;BME280;27061;41.648;24.568;2022-11-14T00:09:26;86845.38;;;5.80;61.29
41312;BME280;27061;41.648;24.568;2022-11-14T00:12:12;86850.94;;;5.84;61.59
41312;BME280;27061;41.648;24.568;2022-11-14T00:14:57;86835.38;;;5.61;62.02
41312;BME280;27061;41.648;24.568;2022-11-14T00:17:43;86842.41;;;5.70;61.64
41312;BME280;27061;41.648;24.568;2022-11-14T00:20:28;86825.50;;;5.48;62.04
41312;BME280;27061;41.648;24.568;2022-11-14T00:23:14;86816.63;;;5.51;61.92
41312;BME280;27061;41.648;24.568;2022-11-14T00:26:00;86815.78;;;5.43;62.64
41312;BME280;27061;41.648;24.568;2022-11-14T00:28:45;86826.84;;;5.47;62.73
41312;BME280;27061;41.648;24.568;2022-11-14T00:31:30;86798.38;;;5.32;62.28
41312;BME280;27061;41.648;24.568;2022-11-14T00:34:17;86799.03;;;5.29;62.50
41312;BME280;27061;41.648;24.568;2022-11-14T00:37:02;86821.41;;;5.51;62.10
41312;BME280;27061;41.648;24.568;2022-11-14T00:39:48;86789.41;;;5.30;62.12
41312;BME280;27061;41.648;24.568;2022-11-14T00:42:33;86815.69;;;5.39;62.26
41312;BME280;27061;41.648;24.568;2022-11-14T00:45:19;86785.66;;;5.13;62.70
41312;BME280;27061;41.648;24.568;2022-11-14T00:48:04;86810.81;;;5.35;62.93
41312;BME280;27061;41.648;24.568;2022-11-14T00:50:50;86788.53;;;5.19;62.75
41312;BME280;27061;41.648;24.568;2022-11-14T00:53:35;86799.69;;;5.27;62.92
41312;BME280;27061;41.648;24.568;2022-11-14T00:56:21;86787.34;;;5.28;61.39
41312;BME280;27061;41.648;24.568;2022-11-14T00:59:06;86805.28;;;5.33;62.34
41312;BME280;27061;41.648;24.568;2022-11-14T01:01:52;86795.00;;;5.34;62.67
41312;BME280;27061;41.648;24.568;2022-11-14T01:04:42;86733.63;;;4.85;62.74
41312;BME280;27061;41.648;24.568;2022-11-14T01:07:27;86780.97;;;5.20;61.74
41312;BME280;27061;41.648;24.568;2022-11-14T01:10:13;86762.09;;;5.02;62.13
41312;BME280;27061;41.648;24.568;2022-11-14T01:12:59;86785.03;;;5.17;62.69
41312;BME280;27061;41.648;24.568;2022-11-14T01:15:46;86755.91;;;5.01;62.75
41312;BME280;27061;41.648;24.568;2022-11-14T01:18:33;86798.94;;;5.25;62.77
41312;BME280;27061;41.648;24.568;2022-11-14T01:21:19;86785.91;;;5.25;61.62
41312;BME280;27061;41.648;24.568;2022-11-14T01:24:05;86773.28;;;5.12;61.71
41312;BME280;27061;41.648;24.568;2022-11-14T01:26:54;86754.44;;;4.96;61.68
41312;BME280;27061;41.648;24.568;2022-11-14T01:29:40;86729.38;;;4.80;62.35
41312;BME280;27061;41.648;24.568;2022-11-14T01:32:26;86774.00;;;5.14;62.59
41312;BME280;27061;41.648;24.568;2022-11-14T01:35:12;86779.50;;;5.14;62.51
41312;BME280;27061;41.648;24.568;2022-11-14T01:37:57;86748.59;;;4.80;62.68
41312;BME280;27061;41.648;24.568;2022-11-14T01:40:44;86786.19;;;5.05;62.07
41312;BME280;27061;41.648;24.568;2022-11-14T01:43:32;86755.66;;;4.89;61.96
41312;BME280;27061;41.648;24.568;2022-11-14T01:46:28;86779.63;;;4.89;63.61
41312;BME280;27061;41.648;24.568;2022-11-14T01:52:11;86761.13;;;4.89;62.71
41312;BME280;27061;41.648;24.568;2022-11-14T01:54:59;86762.16;;;4.72;63.41
41312;BME280;27061;41.648;24.568;2022-11-14T01:57:46;86735.56;;;4.49;64.14
41312;BME280;27061;41.648;24.568;2022-11-14T02:00:32;86714.69;;;4.33;64.58
41312;BME280;27061;41.648;24.568;2022-11-14T02:03:18;86752.41;;;4.67;64.51
41312;BME280;27061;41.648;24.568;2022-11-14T02:06:05;86756.75;;;4.76;63.57
41312;BME280;27061;41.648;24.568;2022-11-14T02:08:51;86731.75;;;4.62;62.32
41312;BME280;27061;41.648;24.568;2022-11-14T02:11:43;86746.47;;;4.76;62.56
41312;BME280;27061;41.648;24.568;2022-11-14T02:14:29;86751.28;;;4.78;62.54
41312;BME280;27061;41.648;24.568;2022-11-14T02:17:17;86720.63;;;4.54;63.04
41312;BME280;27061;41.648;24.568;2022-11-14T02:20:24;86740.03;;;4.64;63.24
41312;BME280;27061;41.648;24.568;2022-11-14T02:23:12;86737.28;;;4.64;63.86
41312;BME280;27061;41.648;24.568;2022-11-14T02:25:59;86719.69;;;4.43;63.71
41312;BME280;27061;41.648;24.568;2022-11-14T02:28:44;86738.63;;;4.63;63.50
41312;BME280;27061;41.648;24.568;2022-11-14T02:31:30;86737.16;;;4.58;63.16
41312;BME280;27061;41.648;24.568;2022-11-14T02:34:16;86736.00;;;4.69;61.24
41312;BME280;27061;41.648;24.568;2022-11-14T02:37:04;86695.94;;;4.24;61.76
41312;BME280;27061;41.648;24.568;2022-11-14T02:39:50;86716.50;;;4.23;62.51
41312;BME280;27061;41.648;24.568;2022-11-14T02:42:36;86685.22;;;4.02;62.73
41312;BME280;27061;41.648;24.568;2022-11-14T02:45:21;86725.50;;;4.27;63.23
41312;BME280;27061;41.648;24.568;2022-11-14T02:48:07;86735.31;;;4.36;63.34
41312;BME280;27061;41.648;24.568;2022-11-14T02:50:53;86732.50;;;4.34;63.38
41312;BME280;27061;41.648;24.568;2022-11-14T02:53:38;86735.94;;;4.35;63.75
41312;BME280;27061;41.648;24.568;2022-11-14T02:56:24;86704.06;;;4.18;63.40
41312;BME280;27061;41.648;24.568;2022-11-14T02:59:09;86730.03;;;4.45;62.85
41312;BME280;27061;41.648;24.568;2022-11-14T03:01:54;86704.28;;;4.28;63.01
41312;BME280;27061;41.648;24.568;2022-11-14T03:04:40;86732.72;;;4.43;63.14
41312;BME280;27061;41.648;24.568;2022-11-14T03:07:26;86656.84;;;3.89;62.74
41312;BME280;27061;41.648;24.568;2022-11-14T03:10:12;86670.13;;;4.03;62.21
41312;BME280;27061;41.648;24.568;2022-11-14T03:12:58;86723.03;;;4.39;62.15
41312;BME280;27061;41.648;24.568;2022-11-14T03:15:44;86693.66;;;4.12;61.04
41312;BME280;27061;41.648;24.568;2022-11-14T03:18:29;86731.25;;;4.39;60.71
41312;BME280;27061;41.648;24.568;2022-11-14T03:21:19;86690.28;;;4.16;60.59
41312;BME280;27061;41.648;24.568;2022-11-14T03:24:05;86706.50;;;4.35;61.14
41312;BME280;27061;41.648;24.568;2022-11-14T03:26:51;86682.69;;;4.12;61.57
41312;BME280;27061;41.648;24.568;2022-11-14T03:29:37;86693.22;;;4.24;61.33
41312;BME280;27061;41.648;24.568;2022-11-14T03:32:22;86705.09;;;4.34;60.18
41312;BME280;27061;41.648;24.568;2022-11-14T03:35:08;86719.13;;;4.49;60.86
41312;BME280;27061;41.648;24.568;2022-11-14T03:37:53;86677.69;;;4.02;61.68
41312;BME280;27061;41.648;24.568;2022-11-14T03:40:41;86725.66;;;4.33;61.58
41312;BME280;27061;41.648;24.568;2022-11-14T03:43:30;86705.06;;;4.32;59.59
41312;BME280;27061;41.648;24.568;2022-11-14T03:46:16;86687.59;;;4.18;60.32
41312;BME280;27061;41.648;24.568;2022-11-14T03:49:01;86707.44;;;4.16;61.68
41312;BME280;27061;41.648;24.568;2022-11-14T03:51:47;86678.28;;;3.99;62.35
41312;BME280;27061;41.648;24.568;2022-11-14T03:54:32;86671.88;;;3.88;62.62
41312;BME280;27061;41.648;24.568;2022-11-14T03:57:18;86700.66;;;4.19;61.30
41312;BME280;27061;41.648;24.568;2022-11-14T04:00:03;86707.06;;;4.30;60.51
41312;BME280;27061;41.648;24.568;2022-11-14T04:02:53;86689.47;;;4.09;60.96
41312;BME280;27061;41.648;24.568;2022-11-14T04:05:38;86704.06;;;4.18;61.61
41312;BME280;27061;41.648;24.568;2022-11-14T04:08:23;86657.31;;;3.80;61.27
41312;BME280;27061;41.648;24.568;2022-11-14T04:11:09;86707.44;;;4.16;59.57
41312;BME280;27061;41.648;24.568;2022-11-14T04:13:54;86671.00;;;3.80;61.26
41312;BME280;27061;41.648;24.568;2022-11-14T04:16:40;86678.00;;;3.87;61.62
41312;BME280;27061;41.648;24.568;2022-11-14T04:19:25;86687.03;;;3.93;61.24
41312;BME280;27061;41.648;24.568;2022-11-14T04:22:11;86674.44;;;3.80;60.70
41312;BME280;27061;41.648;24.568;2022-11-14T04:24:56;86710.97;;;3.91;61.95
41312;BME280;27061;41.648;24.568;2022-11-14T04:27:42;86689.88;;;3.67;62.16
41312;BME280;27061;41.648;24.568;2022-11-14T04:30:28;86706.97;;;3.96;61.36
41312;BME280;27061;41.648;24.568;2022-11-14T04:33:19;86695.44;;;3.72;61.45
41312;BME280;27061;41.648;24.568;2022-11-14T04:36:04;86710.06;;;3.82;60.85
41312;BME280;27061;41.648;24.568;2022-11-14T04:38:50;86694.75;;;3.71;62.39
41312;BME280;27061;41.648;24.568;2022-11-14T04:41:35;86702.31;;;3.73;62.50
41312;BME280;27061;41.648;24.568;2022-11-14T04:44:20;86701.22;;;3.84;61.73
41312;BME280;27061;41.648;24.568;2022-11-14T04:47:06;86708.09;;;3.85;61.86
41312;BME280;27061;41.648;24.568;2022-11-14T04:49:51;86696.81;;;3.71;62.27
41312;BME280;27061;41.648;24.568;2022-11-14T04:52:37;86674.53;;;3.56;61.50
41312;BME280;27061;41.648;24.568;2022-11-14T04:55:23;86714.97;;;3.86;61.05
41312;BME280;27061;41.648;24.568;2022-11-14T04:58:14;86623.59;;;3.15;60.36
41312;BME280;27061;41.648;24.568;2022-11-14T05:01:09;86570.19;;;2.58;61.04
41312;BME280;27061;41.648;24.568;2022-11-14T05:03:55;86722.41;;;3.83;61.96
41312;BME280;27061;41.648;24.568;2022-11-14T05:06:41;86721.34;;;3.66;60.91
41312;BME280;27061;41.648;24.568;2022-11-14T05:09:27;86682.47;;;3.44;60.98
41312;BME280;27061;41.648;24.568;2022-11-14T05:12:13;86710.97;;;3.63;61.55
41312;BME280;27061;41.648;24.568;2022-11-14T05:14:58;86701.81;;;3.52;62.08
41312;BME280;27061;41.648;24.568;2022-11-14T05:17:44;86672.50;;;3.29;63.04
41312;BME280;27061;41.648;24.568;2022-11-14T05:20:30;86700.41;;;3.51;62.92
41312;BME280;27061;41.648;24.568;2022-11-14T05:23:18;86702.38;;;3.47;62.86
41312;BME280;27061;41.648;24.568;2022-11-14T05:26:09;86697.53;;;3.45;62.96
41312;BME280;27061;41.648;24.568;2022-11-14T05:28:55;86684.88;;;3.32;63.29
41312;BME280;27061;41.648;24.568;2022-11-14T05:31:40;86674.97;;;3.19;64.00
41312;BME280;27061;41.648;24.568;2022-11-14T05:34:26;86703.91;;;3.54;63.62
41312;BME280;27061;41.648;24.568;2022-11-14T05:37:11;86687.81;;;3.40;63.85
41312;BME280;27061;41.648;24.568;2022-11-14T05:39:56;86674.63;;;3.33;61.96
41312;BME280;27061;41.648;24.568;2022-11-14T05:42:42;86697.66;;;3.49;63.10
41312;BME280;27061;41.648;24.568;2022-11-14T05:45:27;86677.50;;;3.37;63.58
41312;BME280;27061;41.648;24.568;2022-11-14T05:48:13;86710.22;;;3.60;63.96
41312;BME280;27061;41.648;24.568;2022-11-14T05:51:00;86712.19;;;3.56;64.15
41312;BME280;27061;41.648;24.568;2022-11-14T05:53:46;86698.88;;;3.44;64.25
41312;BME280;27061;41.648;24.568;2022-11-14T05:56:31;86701.88;;;3.54;64.06
41312;BME280;27061;41.648;24.568;2022-11-14T05:59:17;86680.94;;;3.37;64.70
41312;BME280;27061;41.648;24.568;2022-11-14T06:02:02;86705.91;;;3.51;64.84
41312;BME280;27061;41.648;24.568;2022-11-14T06:04:48;86688.38;;;3.35;64.92
41312;BME280;27061;41.648;24.568;2022-11-14T06:07:33;86686.53;;;3.43;64.47
41312;BME280;27061;41.648;24.568;2022-11-14T06:10:19;86706.69;;;3.56;63.24
41312;BME280;27061;41.648;24.568;2022-11-14T06:13:04;86725.72;;;3.78;62.63
41312;BME280;27061;41.648;24.568;2022-11-14T06:15:50;86725.28;;;3.87;63.19
41312;BME280;27061;41.648;24.568;2022-11-14T06:18:36;86697.34;;;3.65;63.75
41312;BME280;27061;41.648;24.568;2022-11-14T06:21:23;86720.66;;;3.66;64.43
41312;BME280;27061;41.648;24.568;2022-11-14T06:24:09;86731.28;;;3.82;63.70
41312;BME280;27061;41.648;24.568;2022-11-14T06:26:54;86700.91;;;3.72;63.62
41312;BME280;27061;41.648;24.568;2022-11-14T06:29:40;86731.69;;;3.98;64.54
41312;BME280;27061;41.648;24.568;2022-11-14T06:32:25;86715.41;;;3.76;65.37
41312;BME280;27061;41.648;24.568;2022-11-14T06:35:11;86735.25;;;4.04;65.27
41312;BME280;27061;41.648;24.568;2022-11-14T06:37:58;86722.72;;;3.95;65.73
41312;BME280;27061;41.648;24.568;2022-11-14T06:40:43;86709.78;;;3.98;66.07
41312;BME280;27061;41.648;24.568;2022-11-14T06:43:31;86696.00;;;3.96;66.48
41312;BME280;27061;41.648;24.568;2022-11-14T06:46:19;86704.56;;;4.10;65.82
41312;BME280;27061;41.648;24.568;2022-11-14T06:49:05;86720.88;;;4.34;65.79
41312;BME280;27061;41.648;24.568;2022-11-14T06:51:50;86714.69;;;4.33;65.11
41312;BME280;27061;41.648;24.568;2022-11-14T06:54:36;86679.66;;;4.30;66.66
41312;BME280;27061;41.648;24.568;2022-11-14T06:57:21;86720.13;;;4.63;66.30
41312;BME280;27061;41.648;24.568;2022-11-14T07:00:08;86714.16;;;4.73;67.52
41312;BME280;27061;41.648;24.568;2022-11-14T07:02:53;86701.69;;;4.68;67.79
41312;BME280;27061;41.648;24.568;2022-11-14T07:05:39;86699.16;;;4.78;69.12
41312;BME280;27061;41.648;24.568;2022-11-14T07:08:24;86709.19;;;4.97;69.06
41312;BME280;27061;41.648;24.568;2022-11-14T07:11:12;86688.44;;;4.90;69.06
41312;BME280;27061;41.648;24.568;2022-11-14T07:14:08;86717.78;;;5.15;68.86
41312;BME280;27061;41.648;24.568;2022-11-14T07:16:53;86715.13;;;5.22;69.30
41312;BME280;27061;41.648;24.568;2022-11-14T07:19:39;86685.38;;;5.08;70.10
41312;BME280;27061;41.648;24.568;2022-11-14T07:22:24;86710.06;;;5.44;70.28
41312;BME280;27061;41.648;24.568;2022-11-14T07:25:09;86714.38;;;5.55;69.89
41312;BME280;27061;41.648;24.568;2022-11-14T07:27:56;86714.66;;;5.69;70.85
41312;BME280;27061;41.648;24.568;2022-11-14T07:30:42;86710.75;;;5.82;70.99
41312;BME280;27061;41.648;24.568;2022-11-14T07:33:28;86694.44;;;5.91;70.55
41312;BME280;27061;41.648;24.568;2022-11-14T07:36:15;86690.38;;;5.96;70.20
41312;BME280;27061;41.648;24.568;2022-11-14T07:39:01;86708.75;;;6.27;70.35
41312;BME280;27061;41.648;24.568;2022-11-14T07:41:46;86703.47;;;6.41;70.38
41312;BME280;27061;41.648;24.568;2022-11-14T07:44:31;86693.31;;;6.52;70.32
41312;BME280;27061;41.648;24.568;2022-11-14T07:47:17;86703.28;;;6.75;69.69
41312;BME280;27061;41.648;24.568;2022-11-14T07:50:03;86704.97;;;6.98;68.89
41312;BME280;27061;41.648;24.568;2022-11-14T07:52:53;86661.41;;;6.83;69.72
41312;BME280;27061;41.648;24.568;2022-11-14T07:55:39;86700.47;;;7.25;70.71
41312;BME280;27061;41.648;24.568;2022-11-14T07:58:25;86703.53;;;7.50;70.69
41312;BME280;27061;41.648;24.568;2022-11-14T08:01:11;86703.72;;;7.68;66.35
41312;BME280;27061;41.648;24.568;2022-11-14T08:03:58;86705.94;;;7.84;65.67
41312;BME280;27061;41.648;24.568;2022-11-14T08:06:43;86698.53;;;8.00;64.19
41312;BME280;27061;41.648;24.568;2022-11-14T08:09:29;86698.69;;;8.19;62.84
41312;BME280;27061;41.648;24.568;2022-11-14T08:12:14;86696.06;;;8.33;64.16
41312;BME280;27061;41.648;24.568;2022-11-14T08:14:59;86660.09;;;8.21;63.95
41312;BME280;27061;41.648;24.568;2022-11-14T08:17:45;86681.78;;;8.59;63.06
41312;BME280;27061;41.648;24.568;2022-11-14T08:20:30;86693.72;;;8.86;62.95
41312;BME280;27061;41.648;24.568;2022-11-14T08:23:16;86661.94;;;8.82;62.59
41312;BME280;27061;41.648;24.568;2022-11-14T08:26:01;86698.03;;;9.17;62.07
41312;BME280;27061;41.648;24.568;2022-11-14T08:28:51;86675.94;;;9.17;61.30
41312;BME280;27061;41.648;24.568;2022-11-14T08:31:37;86680.16;;;9.36;60.45
41312;BME280;27061;41.648;24.568;2022-11-14T08:34:24;86692.69;;;9.55;56.97
41312;BME280;27061;41.648;24.568;2022-11-14T08:37:09;86689.28;;;9.63;57.13
41312;BME280;27061;41.648;24.568;2022-11-14T08:39:55;86696.91;;;9.75;57.43
41312;BME280;27061;41.648;24.568;2022-11-14T08:42:40;86638.75;;;9.44;57.30
41312;BME280;27061;41.648;24.568;2022-11-14T08:45:26;86680.38;;;9.91;56.61
41312;BME280;27061;41.648;24.568;2022-11-14T08:48:11;86672.09;;;9.93;56.21
41312;BME280;27061;41.648;24.568;2022-11-14T08:50:57;86663.09;;;10.03;54.18
41312;BME280;27061;41.648;24.568;2022-11-14T08:53:42;86646.50;;;9.99;54.57
41312;BME280;27061;41.648;24.568;2022-11-14T08:56:28;86681.88;;;10.37;54.72
41312;BME280;27061;41.648;24.568;2022-11-14T08:59:13;86674.25;;;10.45;56.16
41312;BME280;27061;41.648;24.568;2022-11-14T09:01:59;86647.25;;;10.44;55.51
41312;BME280;27061;41.648;24.568;2022-11-14T09:04:44;86654.19;;;10.57;55.80
41312;BME280;27061;41.648;24.568;2022-11-14T09:07:30;86656.25;;;10.77;55.95
41312;BME280;27061;41.648;24.568;2022-11-14T09:10:16;86655.56;;;10.88;55.32
41312;BME280;27061;41.648;24.568;2022-11-14T09:13:02;86658.28;;;11.02;55.27
41312;BME280;27061;41.648;24.568;2022-11-14T09:15:47;86659.66;;;11.18;53.81
41312;BME280;27061;41.648;24.568;2022-11-14T09:18:33;86651.31;;;11.28;53.27
41312;BME280;27061;41.648;24.568;2022-11-14T09:21:18;86642.31;;;11.33;53.96
41312;BME280;27061;41.648;24.568;2022-11-14T09:24:04;86649.19;;;11.53;53.61
41312;BME280;27061;41.648;24.568;2022-11-14T09:26:51;86636.00;;;11.51;53.67
41312;BME280;27061;41.648;24.568;2022-11-14T09:29:41;86647.69;;;11.78;54.82
41312;BME280;27061;41.648;24.568;2022-11-14T09:32:26;86643.50;;;11.89;55.71
41312;BME280;27061;41.648;24.568;2022-11-14T09:35:12;86633.75;;;11.96;54.89
41312;BME280;27061;41.648;24.568;2022-11-14T09:38:02;86621.88;;;12.08;54.66
41312;BME280;27061;41.648;24.568;2022-11-14T09:40:59;86643.25;;;12.32;52.85
41312;BME280;27061;41.648;24.568;2022-11-14T09:47:15;86609.16;;;12.43;54.44
41312;BME280;27061;41.648;24.568;2022-11-14T09:50:27;86596.66;;;12.42;54.38
41312;BME280;27061;41.648;24.568;2022-11-14T09:53:31;86619.94;;;12.86;53.81
41312;BME280;27061;41.648;24.568;2022-11-14T09:56:21;86626.78;;;12.99;53.39
41312;BME280;27061;41.648;24.568;2022-11-14T09:59:10;86610.00;;;13.11;53.06
41312;BME280;27061;41.648;24.568;2022-11-14T10:10:56;86584.69;;;13.40;52.82
41312;BME280;27061;41.648;24.568;2022-11-14T10:19:37;86604.28;;;13.89;52.75
41312;BME280;27061;41.648;24.568;2022-11-14T10:28:33;86589.31;;;14.19;51.83
41312;BME280;27061;41.648;24.568;2022-11-14T10:34:37;86589.03;;;14.39;49.49
41312;BME280;27061;41.648;24.568;2022-11-14T10:37:35;86588.19;;;14.51;48.75
41312;BME280;27061;41.648;24.568;2022-11-14T10:40:25;86573.56;;;14.50;48.35
41312;BME280;27061;41.648;24.568;2022-11-14T10:46:25;86584.25;;;14.79;47.63
41312;BME280;27061;41.648;24.568;2022-11-14T10:49:21;86549.63;;;14.65;49.06
41312;BME280;27061;41.648;24.568;2022-11-14T10:52:12;86575.72;;;14.91;49.54
41312;BME280;27061;41.648;24.568;2022-11-14T10:55:05;86574.16;;;15.00;48.25
41312;BME280;27061;41.648;24.568;2022-11-14T10:57:51;86569.88;;;15.05;47.28
41312;BME280;27061;41.648;24.568;2022-11-14T11:00:37;86540.06;;;14.95;48.06
41312;BME280;27061;41.648;24.568;2022-11-14T11:03:40;86557.13;;;15.16;48.09
41312;BME280;27061;41.648;24.568;2022-11-14T11:06:27;86558.38;;;15.25;47.71
41312;BME280;27061;41.648;24.568;2022-11-14T11:09:21;86547.06;;;15.33;47.68
41312;BME280;27061;41.648;24.568;2022-11-14T11:15:29;86551.13;;;15.41;46.91
41312;BME280;27061;41.648;24.568;2022-11-14T11:21:20;86521.97;;;15.33;44.39
41312;BME280;27061;41.648;24.568;2022-11-14T11:24:07;86545.22;;;15.59;44.11
41312;BME280;27061;41.648;24.568;2022-11-14T11:30:06;86536.75;;;15.65;42.65
41312;BME280;27061;41.648;24.568;2022-11-14T11:32:52;86521.56;;;15.56;43.00
41312;BME280;27061;41.648;24.568;2022-11-14T11:35:39;86510.31;;;15.60;41.00
41312;BME280;27061;41.648;24.568;2022-11-14T11:38:27;86530.88;;;15.79;40.95
41312;BME280;27061;41.648;24.568;2022-11-14T11:41:28;86530.03;;;15.87;41.94
41312;BME280;27061;41.648;24.568;2022-11-14T11:44:38;86501.75;;;15.70;41.02
41312;BME280;27061;41.648;24.568;2022-11-14T11:47:30;86530.63;;;15.91;41.60
41312;BME280;27061;41.648;24.568;2022-11-14T11:50:19;86534.00;;;15.98;40.60
41312;BME280;27061;41.648;24.568;2022-11-14T11:56:16;86515.38;;;15.86;42.06
41312;BME280;27061;41.648;24.568;2022-11-14T11:59:36;86524.75;;;16.05;42.03
41312;BME280;27061;41.648;24.568;2022-11-14T12:02:25;86526.09;;;16.08;40.68
41312;BME280;27061;41.648;24.568;2022-11-14T12:05:17;86490.16;;;15.90;40.13
41312;BME280;27061;41.648;24.568;2022-11-14T12:11:10;86497.69;;;15.98;40.82
41312;BME280;27061;41.648;24.568;2022-11-14T12:18:07;86522.97;;;16.23;40.54
41312;BME280;27061;41.648;24.568;2022-11-14T12:32:59;86521.38;;;16.32;39.52
41312;BME280;27061;41.648;24.568;2022-11-14T12:35:49;86503.38;;;16.25;40.13
41312;BME280;27061;41.648;24.568;2022-11-14T12:38:52;86514.81;;;16.43;40.83
41312;BME280;27061;41.648;24.568;2022-11-14T12:41:39;86499.00;;;16.32;39.70
41312;BME280;27061;41.648;24.568;2022-11-14T12:47:16;86475.53;;;16.21;40.88
41312;BME280;27061;41.648;24.568;2022-11-14T12:50:04;86507.13;;;16.44;38.65
41312;BME280;27061;41.648;24.568;2022-11-14T12:52:50;86507.91;;;16.40;39.65
41312;BME280;27061;41.648;24.568;2022-11-14T13:01:49;86512.78;;;16.42;40.36
41312;BME280;27061;41.648;24.568;2022-11-14T13:05:08;86511.44;;;16.39;41.89
41312;BME280;27061;41.648;24.568;2022-11-14T13:10:44;86516.44;;;16.34;42.10
41312;BME280;27061;41.648;24.568;2022-11-14T13:13:30;86466.31;;;15.95;41.04
41312;BME280;27061;41.648;24.568;2022-11-14T13:16:34;86511.84;;;16.21;40.37
41312;BME280;27061;41.648;24.568;2022-11-14T13:19:45;86503.13;;;16.04;41.11
41312;BME280;27061;41.648;24.568;2022-11-14T13:22:50;86478.22;;;15.61;40.75
41312;BME280;27061;41.648;24.568;2022-11-14T13:25:35;86513.06;;;15.62;41.24
41312;BME280;27061;41.648;24.568;2022-11-14T13:31:23;86499.63;;;15.35;41.49
41312;BME280;27061;41.648;24.568;2022-11-14T13:40:13;86499.94;;;14.78;42.89
41312;BME280;27061;41.648;24.568;2022-11-14T13:52:47;86508.47;;;13.76;45.12
41312;BME280;27061;41.648;24.568;2022-11-14T14:02:14;86518.47;;;12.91;46.71
41312;BME280;27061;41.648;24.568;2022-11-14T14:15:07;86467.97;;;11.93;49.08
41312;BME280;27061;41.648;24.568;2022-11-14T14:18:11;86507.44;;;12.07;49.78
41312;BME280;27061;41.648;24.568;2022-11-14T14:33:10;86502.81;;;11.65;50.11
41312;BME280;27061;41.648;24.568;2022-11-14T14:35:56;86510.53;;;11.49;50.05
41312;BME280;27061;41.648;24.568;2022-11-14T14:38:42;86489.81;;;11.37;50.24
41312;BME280;27061;41.648;24.568;2022-11-14T14:41:30;86475.38;;;11.15;50.74
41312;BME280;27061;41.648;24.568;2022-11-14T14:44:31;86496.81;;;11.24;50.80
41312;BME280;27061;41.648;24.568;2022-11-14T14:47:41;86494.09;;;11.12;51.18
41312;BME280;27061;41.648;24.568;2022-11-14T14:50:36;86478.25;;;10.94;51.46
41312;BME280;27061;41.648;24.568;2022-11-14T14:53:31;86501.78;;;10.97;51.21
41312;BME280;27061;41.648;24.568;2022-11-14T14:56:22;86510.09;;;10.99;51.86
41312;BME280;27061;41.648;24.568;2022-11-14T14:59:18;86465.16;;;10.73;52.44
41312;BME280;27061;41.648;24.568;2022-11-14T15:02:12;86494.25;;;10.78;52.44
41312;BME280;27061;41.648;24.568;2022-11-14T15:05:00;86496.28;;;10.81;52.35
41312;BME280;27061;41.648;24.568;2022-11-14T15:07:46;86493.56;;;10.69;52.70
41312;BME280;27061;41.648;24.568;2022-11-14T15:10:33;86467.34;;;10.42;52.98
41312;BME280;27061;41.648;24.568;2022-11-14T15:13:19;86502.59;;;10.55;53.24
41312;BME280;27061;41.648;24.568;2022-11-14T15:16:05;86468.06;;;10.22;53.40
41312;BME280;27061;41.648;24.568;2022-11-14T15:18:53;86488.84;;;10.25;53.72
41312;BME280;27061;41.648;24.568;2022-11-14T15:21:41;86435.59;;;9.82;53.98
41312;BME280;27061;41.648;24.568;2022-11-14T15:24:27;86486.03;;;10.07;54.18
41312;BME280;27061;41.648;24.568;2022-11-14T15:27:18;86492.28;;;10.05;53.95
41312;BME280;27061;41.648;24.568;2022-11-14T15:30:06;86501.97;;;10.02;54.52
41312;BME280;27061;41.648;24.568;2022-11-14T15:32:54;86495.75;;;9.91;54.72
41312;BME280;27061;41.648;24.568;2022-11-14T15:35:41;86492.28;;;9.89;54.28
41312;BME280;27061;41.648;24.568;2022-11-14T15:38:27;86469.50;;;9.62;54.77
41312;BME280;27061;41.648;24.568;2022-11-14T15:41:32;86472.94;;;9.61;54.61
41312;BME280;27061;41.648;24.568;2022-11-14T15:44:32;86488.13;;;9.58;55.18
41312;BME280;27061;41.648;24.568;2022-11-14T15:47:24;86509.59;;;9.73;54.80
41312;BME280;27061;41.648;24.568;2022-11-14T15:53:04;86504.72;;;9.68;54.42
41312;BME280;27061;41.648;24.568;2022-11-14T15:55:50;86481.22;;;9.48;54.58
41312;BME280;27061;41.648;24.568;2022-11-14T15:58:36;86490.22;;;9.51;54.15
41312;BME280;27061;41.648;24.568;2022-11-14T16:01:22;86511.63;;;9.59;53.44
41312;BME280;27061;41.648;24.568;2022-11-14T16:04:22;86501.94;;;9.37;53.75
41312;BME280;27061;41.648;24.568;2022-11-14T16:07:13;86517.13;;;9.38;54.36
41312;BME280;27061;41.648;24.568;2022-11-14T16:09:59;86450.00;;;8.81;54.97
41312;BME280;27061;41.648;24.568;2022-11-14T16:12:45;86514.34;;;9.24;54.57
41312;BME280;27061;41.648;24.568;2022-11-14T16:15:36;86512.94;;;9.13;54.55
41312;BME280;27061;41.648;24.568;2022-11-14T16:18:22;86506.69;;;9.00;54.30
41312;BME280;27061;41.648;24.568;2022-11-14T16:21:13;86514.25;;;8.88;54.67
41312;BME280;27061;41.648;24.568;2022-11-14T16:24:00;86504.53;;;8.74;55.17
41312;BME280;27061;41.648;24.568;2022-11-14T16:26:46;86498.94;;;8.58;56.09
41312;BME280;27061;41.648;24.568;2022-11-14T16:29:32;86495.44;;;8.50;55.38
41312;BME280;27061;41.648;24.568;2022-11-14T16:32:17;86516.84;;;8.51;55.69
41312;BME280;27061;41.648;24.568;2022-11-14T16:35:06;86507.16;;;8.44;55.45
41312;BME280;27061;41.648;24.568;2022-11-14T16:37:55;86500.91;;;8.39;55.36
41312;BME280;27061;41.648;24.568;2022-11-14T16:40:43;86516.84;;;8.51;54.95
41312;BME280;27061;41.648;24.568;2022-11-14T16:43:29;86502.22;;;8.30;55.69
41312;BME280;27061;41.648;24.568;2022-11-14T16:46:15;86520.22;;;8.33;55.61
41312;BME280;27061;41.648;24.568;2022-11-14T16:49:01;86508.41;;;8.29;55.25
41312;BME280;27061;41.648;24.568;2022-11-14T16:51:47;86522.19;;;8.27;55.73
41312;BME280;27061;41.648;24.568;2022-11-14T16:54:35;86494.50;;;8.06;55.02